PWSweather.com
Personal Weather Stations
Station Observations
CW4114
Near Downtown, Rogers City, MI 49779

Near DowntownRogers City, MI 49779

Lat: 45.417443, Lon: -83.810642

Elevation: 605

Station Type: Davis Vantage Pro2 w/Solar

Latest ConditionsUpdated 8:44:09 AM EDT Monday, Jun 24, 2019
Currently Today's Max Today's Min Today's Average
Temperature 59.7°F15.4°C 63.1°F17.3°C 59.4°F15.2°C 61.5°F16.4°C
Dew Point 56.1°F13.4°C 56.3°F13.5°C 46.8°F8.2°C 50.1°F10.1°C
Winds 3.6 mph SSE5.8 kmh SSE 6.7 mph -10.8 kmh - - 3.4 mph 5.5 kmh
Wind Gusts 11.6 mph18.7 kmh 12.8 mph20.6 kmh - -
Humidity 88% 88% 55% 67%
Pressure 29.67 in1004.7 mb 29.79 in1008.8 mb 29.67 in1004.7 mb -
Hour Temp Dew Point Humidity Winds Wind Gusts Pressure Precip Precip Rate Daily Precip Total
08:44 AM 59.7°F15.4°C 56.1°F13.4°C 88% 3.6 mph SSE5.8 kmh SSE 11.6 mph18.7 kmh 29.67 in1004.7 mb 0.00 in0.0 mm 0.00 in0.0 mm 0.00 in0.0 mm
08:39 AM 60.1°F15.6°C 56.1°F13.4°C 87% 4.5 mph SSW7.2 kmh SSW 9.6 mph15.4 kmh 29.67 in1004.7 mb 0.00 in0.0 mm 0.00 in0.0 mm 0.00 in0.0 mm
08:34 AM 60.4°F15.8°C 56.3°F13.5°C 86% 6.5 mph SSW10.5 kmh SSW 12.8 mph20.6 kmh 29.67 in1004.7 mb 0.00 in0.0 mm 0.00 in0.0 mm 0.00 in0.0 mm
08:29 AM 60.4°F15.8°C 56.3°F13.5°C 86% 4.0 mph S6.4 kmh S 10.5 mph16.9 kmh 29.68 in1005.1 mb 0.00 in0.0 mm 0.00 in0.0 mm 0.00 in0.0 mm
08:24 AM 60.3°F15.7°C 56.1°F13.4°C 86% 6.7 mph SSE10.8 kmh SSE 9.6 mph15.4 kmh 29.68 in1005.1 mb 0.00 in0.0 mm 0.00 in0.0 mm 0.00 in0.0 mm
08:19 AM 60.1°F15.6°C 56.1°F13.4°C 87% 6.0 mph S9.7 kmh S 10.5 mph16.9 kmh 29.68 in1005.1 mb 0.00 in0.0 mm 0.00 in0.0 mm 0.00 in0.0 mm
08:14 AM 59.7°F15.4°C 56.1°F13.4°C 88% 3.6 mph SE5.8 kmh SE 10.5 mph16.9 kmh 29.68 in1005.1 mb 0.00 in0.0 mm 0.00 in0.0 mm 0.00 in0.0 mm
08:09 AM 59.5°F15.3°C 55.9°F13.3°C 88% 3.6 mph SSE5.8 kmh SSE 7.4 mph11.9 kmh 29.68 in1005.1 mb 0.00 in0.0 mm 0.00 in0.0 mm 0.00 in0.0 mm
08:04 AM 59.4°F15.2°C 55.8°F13.2°C 88% 2.9 mph S4.7 kmh S 6.3 mph10.1 kmh 29.68 in1005.1 mb 0.00 in0.0 mm 0.00 in0.0 mm 0.00 in0.0 mm
07:59 AM 59.4°F15.2°C 55.8°F13.2°C 88% 2.2 mph E3.5 kmh E 4.3 mph6.9 kmh 29.68 in1005.1 mb 0.00 in0.0 mm 0.00 in0.0 mm 0.00 in0.0 mm
07:54 AM 59.4°F15.2°C 55.8°F13.2°C 88% 2.5 mph ESE4.0 kmh ESE 4.3 mph6.9 kmh 29.68 in1005.1 mb 0.00 in0.0 mm 0.00 in0.0 mm 0.00 in0.0 mm
07:49 AM 59.5°F15.3°C 55.6°F13.1°C 87% 1.6 mph E2.6 kmh E 3.1 mph5.0 kmh 29.68 in1005.1 mb 0.00 in0.0 mm 0.00 in0.0 mm 0.00 in0.0 mm
07:44 AM 59.7°F15.4°C 55.6°F13.1°C 86% 0.2 mph ESE0.3 kmh ESE 3.1 mph5.0 kmh 29.69 in1005.4 mb 0.00 in0.0 mm 0.00 in0.0 mm 0.00 in0.0 mm
07:39 AM 59.7°F15.4°C 55.6°F13.1°C 86% 1.3 mph E2.1 kmh E 3.1 mph5.0 kmh 29.69 in1005.4 mb 0.00 in0.0 mm 0.00 in0.0 mm 0.00 in0.0 mm
07:34 AM 59.9°F15.5°C 55.4°F13.0°C 85% 2.9 mph ESE4.7 kmh ESE 4.3 mph6.9 kmh 29.68 in1005.1 mb 0.00 in0.0 mm 0.00 in0.0 mm 0.00 in0.0 mm
07:29 AM 60.1°F15.6°C 55.2°F12.9°C 84% 1.1 mph ESE1.8 kmh ESE 2.0 mph3.2 kmh 29.68 in1005.1 mb 0.00 in0.0 mm 0.00 in0.0 mm 0.00 in0.0 mm
07:24 AM 60.1°F15.6°C 54.9°F12.7°C 83% 2.2 mph E3.5 kmh E 5.4 mph8.7 kmh 29.69 in1005.4 mb 0.00 in0.0 mm 0.00 in0.0 mm 0.00 in0.0 mm
07:19 AM 60.3°F15.7°C 54.7°F12.6°C 82% 1.1 mph S1.8 kmh S 4.3 mph6.9 kmh 29.69 in1005.4 mb 0.00 in0.0 mm 0.00 in0.0 mm 0.00 in0.0 mm
07:14 AM 60.3°F15.7°C 54.7°F12.6°C 82% 1.3 mph SE2.1 kmh SE 6.3 mph10.1 kmh 29.69 in1005.4 mb 0.00 in0.0 mm 0.00 in0.0 mm 0.00 in0.0 mm
07:09 AM 60.4°F15.8°C 54.5°F12.5°C 81% 1.8 mph SE2.9 kmh SE 4.3 mph6.9 kmh 29.69 in1005.4 mb 0.00 in0.0 mm 0.00 in0.0 mm 0.00 in0.0 mm
07:04 AM 60.4°F15.8°C 54.3°F12.4°C 80% 2.0 mph SE3.2 kmh SE 4.3 mph6.9 kmh 29.69 in1005.4 mb 0.00 in0.0 mm 0.00 in0.0 mm 0.00 in0.0 mm
06:59 AM 60.6°F15.9°C 54.5°F12.5°C 80% 1.6 mph SE2.6 kmh SE 4.3 mph6.9 kmh 29.69 in1005.4 mb 0.00 in0.0 mm 0.00 in0.0 mm 0.00 in0.0 mm
06:54 AM 60.6°F15.9°C 54.1°F12.3°C 79% 2.0 mph SE3.2 kmh SE 6.3 mph10.1 kmh 29.69 in1005.4 mb 0.00 in0.0 mm 0.00 in0.0 mm 0.00 in0.0 mm
06:49 AM 60.8°F16.0°C 54.3°F12.4°C 79% 2.7 mph ESE4.3 kmh ESE 8.5 mph13.7 kmh 29.69 in1005.4 mb 0.00 in0.0 mm 0.00 in0.0 mm 0.00 in0.0 mm
06:44 AM 60.8°F16.0°C 54.0°F12.2°C 78% 2.2 mph SE3.5 kmh SE 8.5 mph13.7 kmh 29.69 in1005.4 mb 0.00 in0.0 mm 0.00 in0.0 mm 0.00 in0.0 mm
06:39 AM 60.8°F16.0°C 54.0°F12.2°C 78% 1.3 mph S2.1 kmh S 6.3 mph10.1 kmh 29.69 in1005.4 mb 0.00 in0.0 mm 0.00 in0.0 mm 0.00 in0.0 mm
06:34 AM 60.8°F16.0°C 53.2°F11.8°C 76% 3.8 mph SSE6.1 kmh SSE 6.3 mph10.1 kmh 29.69 in1005.4 mb 0.00 in0.0 mm 0.00 in0.0 mm 0.00 in0.0 mm
06:29 AM 60.6°F15.9°C 52.7°F11.5°C 75% 4.0 mph SSE6.4 kmh SSE 8.5 mph13.7 kmh 29.70 in1005.8 mb 0.00 in0.0 mm 0.00 in0.0 mm 0.00 in0.0 mm
06:24 AM 60.6°F15.9°C 52.7°F11.5°C 75% 2.9 mph SSE4.7 kmh SSE 6.3 mph10.1 kmh 29.70 in1005.8 mb 0.00 in0.0 mm 0.00 in0.0 mm 0.00 in0.0 mm
06:19 AM 60.6°F15.9°C 52.7°F11.5°C 75% 2.5 mph S4.0 kmh S 6.3 mph10.1 kmh 29.70 in1005.8 mb 0.00 in0.0 mm 0.00 in0.0 mm 0.00 in0.0 mm
06:14 AM 60.6°F15.9°C 52.3°F11.3°C 74% 1.3 mph S2.1 kmh S 6.3 mph10.1 kmh 29.70 in1005.8 mb 0.00 in0.0 mm 0.00 in0.0 mm 0.00 in0.0 mm
06:09 AM 60.8°F16.0°C 52.2°F11.2°C 73% 2.2 mph SE3.5 kmh SE 5.4 mph8.7 kmh 29.70 in1005.8 mb 0.00 in0.0 mm 0.00 in0.0 mm 0.00 in0.0 mm
06:04 AM 60.8°F16.0°C 51.3°F10.7°C 71% 2.9 mph SE4.7 kmh SE 5.4 mph8.7 kmh 29.70 in1005.8 mb 0.00 in0.0 mm 0.00 in0.0 mm 0.00 in0.0 mm
05:59 AM 61.0°F16.1°C 51.4°F10.8°C 71% 1.1 mph SSE1.8 kmh SSE 4.3 mph6.9 kmh 29.70 in1005.8 mb 0.00 in0.0 mm 0.00 in0.0 mm 0.00 in0.0 mm
05:54 AM 61.2°F16.2°C 51.3°F10.7°C 70% 1.6 mph SE2.6 kmh SE 4.3 mph6.9 kmh 29.70 in1005.8 mb 0.00 in0.0 mm 0.00 in0.0 mm 0.00 in0.0 mm
05:49 AM 61.3°F16.3°C 51.1°F10.6°C 69% 1.1 mph SE1.8 kmh SE 6.3 mph10.1 kmh 29.71 in1006.1 mb 0.00 in0.0 mm 0.00 in0.0 mm 0.00 in0.0 mm
05:44 AM 61.3°F16.3°C 49.8°F9.9°C 66% 2.0 mph E3.2 kmh E 3.1 mph5.0 kmh 29.71 in1006.1 mb 0.00 in0.0 mm 0.00 in0.0 mm 0.00 in0.0 mm
05:39 AM 61.3°F16.3°C 49.5°F9.7°C 65% 0.9 mph S1.4 kmh S 3.1 mph5.0 kmh 29.71 in1006.1 mb 0.00 in0.0 mm 0.00 in0.0 mm 0.00 in0.0 mm
05:34 AM 61.3°F16.3°C 49.5°F9.7°C 65% 2.0 mph SE3.2 kmh SE 5.4 mph8.7 kmh 29.71 in1006.1 mb 0.00 in0.0 mm 0.00 in0.0 mm 0.00 in0.0 mm
05:29 AM 61.2°F16.2°C 49.3°F9.6°C 65% 2.7 mph ESE4.3 kmh ESE 6.3 mph10.1 kmh 29.71 in1006.1 mb 0.00 in0.0 mm 0.00 in0.0 mm 0.00 in0.0 mm
05:24 AM 61.2°F16.2°C 49.3°F9.6°C 65% 3.6 mph S5.8 kmh S 6.3 mph10.1 kmh 29.72 in1006.4 mb 0.00 in0.0 mm 0.00 in0.0 mm 0.00 in0.0 mm
05:19 AM 61.2°F16.2°C 49.3°F9.6°C 65% 2.0 mph SSE3.2 kmh SSE 7.4 mph11.9 kmh 29.72 in1006.4 mb 0.00 in0.0 mm 0.00 in0.0 mm 0.00 in0.0 mm
05:14 AM 61.2°F16.2°C 49.3°F9.6°C 65% 3.1 mph S5.0 kmh S 7.4 mph11.9 kmh 29.72 in1006.4 mb 0.00 in0.0 mm 0.00 in0.0 mm 0.00 in0.0 mm
05:09 AM 61.2°F16.2°C 49.3°F9.6°C 65% 2.9 mph S4.7 kmh S 7.4 mph11.9 kmh 29.72 in1006.4 mb 0.00 in0.0 mm 0.00 in0.0 mm 0.00 in0.0 mm
05:04 AM 61.3°F16.3°C 49.1°F9.5°C 64% 4.0 mph SSE6.4 kmh SSE 7.4 mph11.9 kmh 29.72 in1006.4 mb 0.00 in0.0 mm 0.00 in0.0 mm 0.00 in0.0 mm
04:59 AM 61.3°F16.3°C 48.6°F9.2°C 63% 5.1 mph S8.2 kmh S 7.4 mph11.9 kmh 29.72 in1006.4 mb 0.00 in0.0 mm 0.00 in0.0 mm 0.00 in0.0 mm
04:54 AM 61.3°F16.3°C 48.2°F9.0°C 62% 3.4 mph SSE5.5 kmh SSE 7.4 mph11.9 kmh 29.72 in1006.4 mb 0.00 in0.0 mm 0.00 in0.0 mm 0.00 in0.0 mm
04:49 AM 61.3°F16.3°C 48.2°F9.0°C 62% 4.0 mph SSE6.4 kmh SSE 9.6 mph15.4 kmh 29.72 in1006.4 mb 0.00 in0.0 mm 0.00 in0.0 mm 0.00 in0.0 mm
04:44 AM 61.3°F16.3°C 48.2°F9.0°C 62% 4.5 mph SSE7.2 kmh SSE 8.5 mph13.7 kmh 29.72 in1006.4 mb 0.00 in0.0 mm 0.00 in0.0 mm 0.00 in0.0 mm
04:39 AM 61.3°F16.3°C 48.2°F9.0°C 62% 3.6 mph SE5.8 kmh SE 10.5 mph16.9 kmh 29.73 in1006.8 mb 0.00 in0.0 mm 0.00 in0.0 mm 0.00 in0.0 mm
04:34 AM 61.3°F16.3°C 48.2°F9.0°C 62% 3.6 mph S5.8 kmh S 8.5 mph13.7 kmh 29.72 in1006.4 mb 0.00 in0.0 mm 0.00 in0.0 mm 0.00 in0.0 mm
04:29 AM 61.3°F16.3°C 48.2°F9.0°C 62% 4.9 mph S7.9 kmh S 8.5 mph13.7 kmh 29.73 in1006.8 mb 0.00 in0.0 mm 0.00 in0.0 mm 0.00 in0.0 mm
04:24 AM 61.3°F16.3°C 47.8°F8.8°C 61% 5.1 mph S8.2 kmh S 9.6 mph15.4 kmh 29.73 in1006.8 mb 0.00 in0.0 mm 0.00 in0.0 mm 0.00 in0.0 mm
04:19 AM 61.5°F16.4°C 48.0°F8.9°C 61% 4.7 mph SE7.6 kmh SE 9.6 mph15.4 kmh 29.73 in1006.8 mb 0.00 in0.0 mm 0.00 in0.0 mm 0.00 in0.0 mm
04:14 AM 61.5°F16.4°C 47.5°F8.6°C 60% 4.0 mph S6.4 kmh S 12.8 mph20.6 kmh 29.73 in1006.8 mb 0.00 in0.0 mm 0.00 in0.0 mm 0.00 in0.0 mm
04:09 AM 61.5°F16.4°C 47.5°F8.6°C 60% 4.3 mph SE6.9 kmh SE 9.6 mph15.4 kmh 29.73 in1006.8 mb 0.00 in0.0 mm 0.00 in0.0 mm 0.00 in0.0 mm
04:04 AM 61.5°F16.4°C 47.5°F8.6°C 60% 3.4 mph E5.5 kmh E 11.6 mph18.7 kmh 29.73 in1006.8 mb 0.00 in0.0 mm 0.00 in0.0 mm 0.00 in0.0 mm
03:59 AM 61.5°F16.4°C 48.0°F8.9°C 61% 3.4 mph SE5.5 kmh SE 8.5 mph13.7 kmh 29.74 in1007.1 mb 0.00 in0.0 mm 0.00 in0.0 mm 0.00 in0.0 mm
03:54 AM 61.7°F16.5°C 48.2°F9.0°C 61% 3.6 mph SE5.8 kmh SE 6.3 mph10.1 kmh 29.74 in1007.1 mb 0.00 in0.0 mm 0.00 in0.0 mm 0.00 in0.0 mm
03:49 AM 61.9°F16.6°C 48.2°F9.0°C 61% 2.7 mph S4.3 kmh S 8.5 mph13.7 kmh 29.74 in1007.1 mb 0.00 in0.0 mm 0.00 in0.0 mm 0.00 in0.0 mm
03:44 AM 61.7°F16.5°C 48.2°F9.0°C 61% 4.0 mph SE6.4 kmh SE 9.6 mph15.4 kmh 29.74 in1007.1 mb 0.00 in0.0 mm 0.00 in0.0 mm 0.00 in0.0 mm
03:39 AM 61.5°F16.4°C 48.0°F8.9°C 61% 3.8 mph SE6.1 kmh SE 9.6 mph15.4 kmh 29.74 in1007.1 mb 0.00 in0.0 mm 0.00 in0.0 mm 0.00 in0.0 mm
03:34 AM 61.5°F16.4°C 48.4°F9.1°C 62% 3.8 mph SE6.1 kmh SE 10.5 mph16.9 kmh 29.75 in1007.5 mb 0.00 in0.0 mm 0.00 in0.0 mm 0.00 in0.0 mm
03:29 AM 61.5°F16.4°C 48.4°F9.1°C 62% 4.9 mph S7.9 kmh S 8.5 mph13.7 kmh 29.75 in1007.5 mb 0.00 in0.0 mm 0.00 in0.0 mm 0.00 in0.0 mm
03:24 AM 61.5°F16.4°C 48.4°F9.1°C 62% 4.7 mph S7.6 kmh S 8.5 mph13.7 kmh 29.75 in1007.5 mb 0.00 in0.0 mm 0.00 in0.0 mm 0.00 in0.0 mm
03:19 AM 61.5°F16.4°C 48.7°F9.3°C 63% 3.4 mph S5.5 kmh S 10.5 mph16.9 kmh 29.75 in1007.5 mb 0.00 in0.0 mm 0.00 in0.0 mm 0.00 in0.0 mm
03:14 AM 61.5°F16.4°C 48.4°F9.1°C 62% 4.7 mph SW7.6 kmh SW 8.5 mph13.7 kmh 29.76 in1007.8 mb 0.00 in0.0 mm 0.00 in0.0 mm 0.00 in0.0 mm
03:09 AM 61.5°F16.4°C 48.4°F9.1°C 62% 4.3 mph S6.9 kmh S 8.5 mph13.7 kmh 29.76 in1007.8 mb 0.00 in0.0 mm 0.00 in0.0 mm 0.00 in0.0 mm
03:04 AM 61.5°F16.4°C 48.4°F9.1°C 62% 3.6 mph S5.8 kmh S 8.5 mph13.7 kmh 29.76 in1007.8 mb 0.00 in0.0 mm 0.00 in0.0 mm 0.00 in0.0 mm
02:59 AM 61.5°F16.4°C 48.4°F9.1°C 62% 3.8 mph SSE6.1 kmh SSE 7.4 mph11.9 kmh 29.75 in1007.5 mb 0.00 in0.0 mm 0.00 in0.0 mm 0.00 in0.0 mm
02:54 AM 61.5°F16.4°C 48.4°F9.1°C 62% 3.1 mph SSE5.0 kmh SSE 8.5 mph13.7 kmh 29.75 in1007.5 mb 0.00 in0.0 mm 0.00 in0.0 mm 0.00 in0.0 mm
02:48 AM 61.9°F16.6°C 48.7°F9.3°C 62% 2.7 mph SW4.3 kmh SW 8.5 mph13.7 kmh 29.76 in1007.8 mb 0.00 in0.0 mm 0.00 in0.0 mm 0.00 in0.0 mm
02:43 AM 61.9°F16.6°C 48.2°F9.0°C 61% 4.9 mph SSW7.9 kmh SSW 8.5 mph13.7 kmh 29.76 in1007.8 mb 0.00 in0.0 mm 0.00 in0.0 mm 0.00 in0.0 mm
02:38 AM 62.1°F16.7°C 48.0°F8.9°C 60% 3.6 mph SSW5.8 kmh SSW 7.4 mph11.9 kmh 29.76 in1007.8 mb 0.00 in0.0 mm 0.00 in0.0 mm 0.00 in0.0 mm
02:33 AM 62.1°F16.7°C 48.0°F8.9°C 60% 4.3 mph S6.9 kmh S 8.5 mph13.7 kmh 29.76 in1007.8 mb 0.00 in0.0 mm 0.00 in0.0 mm 0.00 in0.0 mm
02:28 AM 62.2°F16.8°C 47.7°F8.7°C 59% 3.4 mph SSW5.5 kmh SSW 7.4 mph11.9 kmh 29.76 in1007.8 mb 0.00 in0.0 mm 0.00 in0.0 mm 0.00 in0.0 mm
02:23 AM 62.2°F16.8°C 47.7°F8.7°C 59% 2.7 mph SE4.3 kmh SE 8.5 mph13.7 kmh 29.77 in1008.1 mb 0.00 in0.0 mm 0.00 in0.0 mm 0.00 in0.0 mm
02:18 AM 62.4°F16.9°C 47.5°F8.6°C 58% 1.8 mph SW2.9 kmh SW 7.4 mph11.9 kmh 29.77 in1008.1 mb 0.00 in0.0 mm 0.00 in0.0 mm 0.00 in0.0 mm
02:13 AM 62.4°F16.9°C 46.9°F8.3°C 57% 3.6 mph SSW5.8 kmh SSW 8.5 mph13.7 kmh 29.77 in1008.1 mb 0.00 in0.0 mm 0.00 in0.0 mm 0.00 in0.0 mm
02:08 AM 62.4°F16.9°C 46.9°F8.3°C 57% 4.9 mph SW7.9 kmh SW 7.4 mph11.9 kmh 29.77 in1008.1 mb 0.00 in0.0 mm 0.00 in0.0 mm 0.00 in0.0 mm
02:03 AM 62.4°F16.9°C 46.9°F8.3°C 57% 4.0 mph SSW6.4 kmh SSW 8.5 mph13.7 kmh 29.77 in1008.1 mb 0.00 in0.0 mm 0.00 in0.0 mm 0.00 in0.0 mm
01:58 AM 62.6°F17.0°C 47.1°F8.4°C 57% 2.5 mph SSE4.0 kmh SSE 6.3 mph10.1 kmh 29.77 in1008.1 mb 0.00 in0.0 mm 0.00 in0.0 mm 0.00 in0.0 mm
01:53 AM 62.6°F17.0°C 47.1°F8.4°C 57% 3.4 mph SSW5.5 kmh SSW 7.4 mph11.9 kmh 29.77 in1008.1 mb 0.00 in0.0 mm 0.00 in0.0 mm 0.00 in0.0 mm
01:48 AM 62.8°F17.1°C 47.3°F8.5°C 57% 4.9 mph S7.9 kmh S 9.6 mph15.4 kmh 29.78 in1008.5 mb 0.00 in0.0 mm 0.00 in0.0 mm 0.00 in0.0 mm
01:43 AM 62.8°F17.1°C 46.9°F8.3°C 56% 4.5 mph SSE7.2 kmh SSE 7.4 mph11.9 kmh 29.78 in1008.5 mb 0.00 in0.0 mm 0.00 in0.0 mm 0.00 in0.0 mm
01:38 AM 62.8°F17.1°C 46.9°F8.3°C 56% 5.8 mph S9.3 kmh S 9.6 mph15.4 kmh 29.78 in1008.5 mb 0.00 in0.0 mm 0.00 in0.0 mm 0.00 in0.0 mm
01:33 AM 62.8°F17.1°C 46.9°F8.3°C 56% 4.0 mph S6.4 kmh S 10.5 mph16.9 kmh 29.78 in1008.5 mb 0.00 in0.0 mm 0.00 in0.0 mm 0.00 in0.0 mm
01:28 AM 63.0°F17.2°C 46.9°F8.3°C 56% 3.8 mph S6.1 kmh S 7.4 mph11.9 kmh 29.78 in1008.5 mb 0.00 in0.0 mm 0.00 in0.0 mm 0.00 in0.0 mm
01:23 AM 63.0°F17.2°C 46.9°F8.3°C 56% 4.0 mph S6.4 kmh S 7.4 mph11.9 kmh 29.78 in1008.5 mb 0.00 in0.0 mm 0.00 in0.0 mm 0.00 in0.0 mm
01:18 AM 63.0°F17.2°C 46.9°F8.3°C 56% 3.4 mph SE5.5 kmh SE 8.5 mph13.7 kmh 29.79 in1008.8 mb 0.00 in0.0 mm 0.00 in0.0 mm 0.00 in0.0 mm
01:13 AM 63.1°F17.3°C 47.1°F8.4°C 56% 3.1 mph SSE5.0 kmh SSE 7.4 mph11.9 kmh 29.79 in1008.8 mb 0.00 in0.0 mm 0.00 in0.0 mm 0.00 in0.0 mm
01:08 AM 63.1°F17.3°C 47.1°F8.4°C 56% 3.6 mph S5.8 kmh S 6.3 mph10.1 kmh 29.78 in1008.5 mb 0.00 in0.0 mm 0.00 in0.0 mm 0.00 in0.0 mm
01:03 AM 63.1°F17.3°C 46.8°F8.2°C 55% 4.0 mph S6.4 kmh S 7.4 mph11.9 kmh 29.79 in1008.8 mb 0.00 in0.0 mm 0.00 in0.0 mm 0.00 in0.0 mm
12:58 AM 63.1°F17.3°C 47.1°F8.4°C 56% 4.9 mph S7.9 kmh S 8.5 mph13.7 kmh 29.79 in1008.8 mb 0.00 in0.0 mm 0.00 in0.0 mm 0.00 in0.0 mm
12:53 AM 63.0°F17.2°C 46.9°F8.3°C 56% 3.1 mph S5.0 kmh S 11.6 mph18.7 kmh 29.79 in1008.8 mb 0.00 in0.0 mm 0.00 in0.0 mm 0.00 in0.0 mm
12:48 AM 63.0°F17.2°C 47.5°F8.6°C 57% 3.4 mph S5.5 kmh S 7.4 mph11.9 kmh 29.79 in1008.8 mb 0.00 in0.0 mm 0.00 in0.0 mm 0.00 in0.0 mm
12:43 AM 63.0°F17.2°C 47.5°F8.6°C 57% 4.9 mph SSE7.9 kmh SSE 9.6 mph15.4 kmh 29.79 in1008.8 mb 0.00 in0.0 mm 0.00 in0.0 mm 0.00 in0.0 mm
12:38 AM 63.0°F17.2°C 47.5°F8.6°C 57% 4.7 mph S7.6 kmh S 12.8 mph20.6 kmh 29.79 in1008.8 mb 0.00 in0.0 mm 0.00 in0.0 mm 0.00 in0.0 mm
12:33 AM 63.0°F17.2°C 47.5°F8.6°C 57% 4.7 mph SSW7.6 kmh SSW 10.5 mph16.9 kmh 29.79 in1008.8 mb 0.00 in0.0 mm 0.00 in0.0 mm 0.00 in0.0 mm
12:28 AM 63.0°F17.2°C 47.5°F8.6°C 57% 4.5 mph SSE7.2 kmh SSE 9.6 mph15.4 kmh 29.79 in1008.8 mb 0.00 in0.0 mm 0.00 in0.0 mm 0.00 in0.0 mm
12:23 AM 63.0°F17.2°C 47.5°F8.6°C 57% 4.0 mph SW6.4 kmh SW 8.5 mph13.7 kmh 29.79 in1008.8 mb 0.00 in0.0 mm 0.00 in0.0 mm 0.00 in0.0 mm
12:18 AM 63.0°F17.2°C 47.5°F8.6°C 57% 5.6 mph SW9.0 kmh SW 11.6 mph18.7 kmh 29.79 in1008.8 mb 0.00 in0.0 mm 0.00 in0.0 mm 0.00 in0.0 mm
12:13 AM 63.0°F17.2°C 47.5°F8.6°C 57% 5.1 mph S8.2 kmh S 9.6 mph15.4 kmh 29.79 in1008.8 mb 0.00 in0.0 mm 0.00 in0.0 mm 0.00 in0.0 mm
12:08 AM 63.0°F17.2°C 47.5°F8.6°C 57% 3.6 mph SW5.8 kmh SW 9.6 mph15.4 kmh 29.79 in1008.8 mb 0.00 in0.0 mm 0.00 in0.0 mm 0.00 in0.0 mm
12:03 AM 63.0°F17.2°C 47.5°F8.6°C 57% 6.5 mph SSW10.5 kmh SSW 10.5 mph16.9 kmh 29.79 in1008.8 mb 0.00 in0.0 mm 0.00 in0.0 mm 0.00 in0.0 mm